sensor_id;sensor_type;location;lat;lon;timestamp;pressure;altitude;pressure_sealevel;temperature;humidity
85258;BME280;75669;48.038;10.158;2024-01-27T09:42:37;61986.06;;;-145.39;100.00
85258;BME280;75669;48.038;10.158;2024-01-27T09:45:05;61986.06;;;-145.39;100.00
85258;BME280;75669;48.038;10.158;2024-01-27T09:47:30;61986.06;;;-145.39;100.00
85258;BME280;75669;48.038;10.158;2024-01-27T09:49:56;61986.06;;;-145.39;100.00
85258;BME280;75669;48.038;10.158;2024-01-27T09:52:22;61986.06;;;-145.39;100.00
85258;BME280;75669;48.038;10.158;2024-01-27T09:54:47;61986.06;;;-145.39;100.00
85258;BME280;75669;48.038;10.158;2024-01-27T09:57:13;61986.06;;;-145.39;100.00
85258;BME280;75669;48.038;10.158;2024-01-27T09:59:41;61986.06;;;-145.39;100.00
85258;BME280;75669;48.038;10.158;2024-01-27T10:02:11;61986.06;;;-145.39;100.00
85258;BME280;75669;48.038;10.158;2024-01-27T10:04:38;61986.06;;;-145.39;100.00
85258;BME280;75669;48.038;10.158;2024-01-27T10:07:06;61986.06;;;-145.39;100.00
85258;BME280;75669;48.038;10.158;2024-01-27T10:09:31;61986.06;;;-145.39;100.00
85258;BME280;75669;48.038;10.158;2024-01-27T10:11:56;61986.06;;;-145.39;100.00
85258;BME280;75669;48.038;10.158;2024-01-27T10:14:23;61986.06;;;-145.39;100.00
85258;BME280;75669;48.038;10.158;2024-01-27T10:16:48;61986.06;;;-145.39;100.00
85258;BME280;75669;48.038;10.158;2024-01-27T10:19:15;61986.06;;;-145.39;100.00
85258;BME280;75669;48.038;10.158;2024-01-27T10:21:42;61986.06;;;-145.39;100.00
85258;BME280;75669;48.038;10.158;2024-01-27T10:24:08;61986.06;;;-145.39;100.00
85258;BME280;75669;48.038;10.158;2024-01-27T10:26:33;61986.06;;;-145.39;100.00
85258;BME280;75669;48.038;10.158;2024-01-27T10:29:00;61986.06;;;-145.39;100.00
85258;BME280;75669;48.038;10.158;2024-01-27T10:31:31;61986.06;;;-145.39;100.00
85258;BME280;75669;48.038;10.158;2024-01-27T10:33:57;61986.06;;;-145.39;100.00
85258;BME280;75669;48.038;10.158;2024-01-27T10:36:23;61986.06;;;-145.39;100.00
85258;BME280;75669;48.038;10.158;2024-01-27T10:38:49;61986.06;;;-145.39;100.00
85258;BME280;75669;48.038;10.158;2024-01-27T10:41:21;61986.06;;;-145.39;100.00
85258;BME280;75669;48.038;10.158;2024-01-27T10:43:50;61986.06;;;-145.39;100.00
85258;BME280;75669;48.038;10.158;2024-01-27T10:46:19;61986.06;;;-145.39;100.00
85258;BME280;75669;48.038;10.158;2024-01-27T10:48:50;61986.06;;;-145.39;100.00
85258;BME280;75669;48.038;10.158;2024-01-27T10:51:18;61986.06;;;-145.39;100.00
85258;BME280;75669;48.038;10.158;2024-01-27T10:55:43;96954.19;;;8.90;74.99
85258;BME280;75669;48.038;10.158;2024-01-27T10:58:10;96954.16;;;8.77;86.96
85258;BME280;75669;48.038;10.158;2024-01-27T11:00:37;96959.63;;;8.09;90.43
85258;BME280;75669;48.038;10.158;2024-01-27T11:03:04;96954.63;;;7.06;92.05
85258;BME280;75669;48.038;10.158;2024-01-27T11:05:33;96960.81;;;8.41;94.50
85258;BME280;75669;48.038;10.158;2024-01-27T11:08:00;96950.03;;;7.65;94.93
85258;BME280;75669;48.038;10.158;2024-01-27T11:10:26;96952.50;;;7.81;97.86
85258;BME280;75669;48.038;10.158;2024-01-27T11:12:53;96947.97;;;8.62;92.88
85258;BME280;75669;48.038;10.158;2024-01-27T11:15:21;96937.69;;;8.56;97.35
85258;BME280;75669;48.038;10.158;2024-01-27T11:17:46;96945.97;;;8.54;91.58
85258;BME280;75669;48.038;10.158;2024-01-27T11:20:12;96945.66;;;8.18;90.48
85258;BME280;75669;48.038;10.158;2024-01-27T11:22:38;96955.72;;;8.02;92.14
85258;BME280;75669;48.038;10.158;2024-01-27T11:25:24;96942.31;;;9.16;84.67
85258;BME280;75669;48.038;10.158;2024-01-27T11:27:50;96945.66;;;9.21;82.30
85258;BME280;75669;48.038;10.158;2024-01-27T11:30:28;96947.97;;;8.43;82.88
85258;BME280;75669;48.038;10.158;2024-01-27T11:32:57;96942.81;;;9.18;80.23
85258;BME280;75669;48.038;10.158;2024-01-27T11:35:23;96940.91;;;8.71;81.97
85258;BME280;75669;48.038;10.158;2024-01-27T11:37:49;96939.38;;;8.65;85.06
85258;BME280;75669;48.038;10.158;2024-01-27T11:40:14;96934.97;;;8.37;85.83
85258;BME280;75669;48.038;10.158;2024-01-27T11:42:41;96940.09;;;7.95;89.10
85258;BME280;75669;48.038;10.158;2024-01-27T11:45:08;96934.78;;;8.52;87.92
85258;BME280;75669;48.038;10.158;2024-01-27T11:47:33;96933.19;;;9.03;87.80
85258;BME280;75669;48.038;10.158;2024-01-27T11:49:59;96918.56;;;9.42;86.03
85258;BME280;75669;48.038;10.158;2024-01-27T11:52:24;96919.69;;;8.80;87.32
85258;BME280;75669;48.038;10.158;2024-01-27T11:55:00;96915.00;;;9.05;87.63
85258;BME280;75669;48.038;10.158;2024-01-27T11:57:26;96907.69;;;9.80;86.22
85258;BME280;75669;48.038;10.158;2024-01-27T11:59:52;96912.09;;;7.74;89.29
85258;BME280;75669;48.038;10.158;2024-01-27T12:02:18;96903.94;;;9.11;88.27
85258;BME280;75669;48.038;10.158;2024-01-27T12:04:43;96901.84;;;8.62;88.11
85258;BME280;75669;48.038;10.158;2024-01-27T12:07:09;96896.72;;;8.27;91.65
85258;BME280;75669;48.038;10.158;2024-01-27T12:09:36;96895.63;;;9.27;89.99
85258;BME280;75669;48.038;10.158;2024-01-27T12:12:02;96905.34;;;8.57;89.43
85258;BME280;75669;48.038;10.158;2024-01-27T12:14:39;96903.84;;;7.94;91.32
85258;BME280;75669;48.038;10.158;2024-01-27T12:17:08;96893.72;;;9.69;89.72
85258;BME280;75669;48.038;10.158;2024-01-27T12:19:33;96892.31;;;8.56;87.50
85258;BME280;75669;48.038;10.158;2024-01-27T12:21:59;96883.69;;;9.38;87.46
85258;BME280;75669;48.038;10.158;2024-01-27T12:24:24;96878.13;;;8.60;88.72
85258;BME280;75669;48.038;10.158;2024-01-27T12:26:49;96869.50;;;9.24;86.53
85258;BME280;75669;48.038;10.158;2024-01-27T12:29:15;96873.00;;;9.24;85.54
85258;BME280;75669;48.038;10.158;2024-01-27T12:31:41;96876.34;;;9.44;85.60
85258;BME280;75669;48.038;10.158;2024-01-27T12:34:07;96872.63;;;9.81;83.64
85258;BME280;75669;48.038;10.158;2024-01-27T12:36:32;96874.16;;;9.73;82.81
85258;BME280;75669;48.038;10.158;2024-01-27T12:38:59;96866.56;;;9.25;84.34
85258;BME280;75669;48.038;10.158;2024-01-27T12:41:25;96857.56;;;10.22;83.77
85258;BME280;75669;48.038;10.158;2024-01-27T12:43:52;96852.94;;;9.77;83.42
85258;BME280;75669;48.038;10.158;2024-01-27T12:46:18;96843.88;;;10.01;81.98
85258;BME280;75669;48.038;10.158;2024-01-27T12:48:45;96838.81;;;9.76;80.37
85258;BME280;75669;48.038;10.158;2024-01-27T12:51:10;96842.50;;;9.39;81.44
85258;BME280;75669;48.038;10.158;2024-01-27T12:53:38;96836.09;;;8.52;79.20
85258;BME280;75669;48.038;10.158;2024-01-27T12:56:07;96834.38;;;9.58;77.19
85258;BME280;75669;48.038;10.158;2024-01-27T12:58:33;96826.31;;;9.35;79.22
85258;BME280;75669;48.038;10.158;2024-01-27T13:00:58;96829.16;;;9.39;76.97
85258;BME280;75669;48.038;10.158;2024-01-27T13:03:23;96814.94;;;9.02;76.88
85258;BME280;75669;48.038;10.158;2024-01-27T13:05:49;96815.41;;;9.82;77.07
85258;BME280;75669;48.038;10.158;2024-01-27T13:08:14;96823.16;;;10.06;75.62
85258;BME280;75669;48.038;10.158;2024-01-27T13:10:39;96817.09;;;9.92;76.48
85258;BME280;75669;48.038;10.158;2024-01-27T13:13:05;96823.28;;;9.65;78.68
85258;BME280;75669;48.038;10.158;2024-01-27T13:15:30;96822.63;;;9.82;76.70
85258;BME280;75669;48.038;10.158;2024-01-27T13:17:56;96819.13;;;9.59;75.81
85258;BME280;75669;48.038;10.158;2024-01-27T13:20:21;96809.06;;;9.55;75.89
85258;BME280;75669;48.038;10.158;2024-01-27T13:22:46;96811.66;;;9.83;73.19
85258;BME280;75669;48.038;10.158;2024-01-27T13:25:12;96810.91;;;10.05;75.14
85258;BME280;75669;48.038;10.158;2024-01-27T13:27:37;96815.19;;;9.56;76.06
85258;BME280;75669;48.038;10.158;2024-01-27T13:30:03;96814.69;;;9.54;76.82
85258;BME280;75669;48.038;10.158;2024-01-27T13:32:28;96807.19;;;10.15;76.39
85258;BME280;75669;48.038;10.158;2024-01-27T13:34:53;96794.75;;;10.33;72.97
85258;BME280;75669;48.038;10.158;2024-01-27T13:37:20;96813.34;;;9.79;73.57
85258;BME280;75669;48.038;10.158;2024-01-27T13:39:46;96811.84;;;9.87;71.95
85258;BME280;75669;48.038;10.158;2024-01-27T13:42:11;96818.44;;;9.67;71.47
85258;BME280;75669;48.038;10.158;2024-01-27T13:44:36;96824.53;;;10.40;69.68
85258;BME280;75669;48.038;10.158;2024-01-27T13:47:05;96822.34;;;9.83;70.88
85258;BME280;75669;48.038;10.158;2024-01-27T13:49:33;96819.56;;;9.10;73.17
85258;BME280;75669;48.038;10.158;2024-01-27T13:51:59;96824.19;;;9.46;74.49
85258;BME280;75669;48.038;10.158;2024-01-27T13:54:24;96827.59;;;9.24;75.54
85258;BME280;75669;48.038;10.158;2024-01-27T13:56:50;96826.41;;;9.17;78.88
85258;BME280;75669;48.038;10.158;2024-01-27T13:59:16;96827.19;;;9.17;74.95
85258;BME280;75669;48.038;10.158;2024-01-27T14:01:41;96831.53;;;8.99;75.97
85258;BME280;75669;48.038;10.158;2024-01-27T14:04:06;96822.25;;;9.24;74.24
85258;BME280;75669;48.038;10.158;2024-01-27T14:06:33;96832.91;;;9.88;74.75
85258;BME280;75669;48.038;10.158;2024-01-27T14:08:59;96823.13;;;9.20;71.71
85258;BME280;75669;48.038;10.158;2024-01-27T14:11:27;96818.69;;;10.38;72.58
85258;BME280;75669;48.038;10.158;2024-01-27T14:13:52;96822.44;;;9.92;73.09
85258;BME280;75669;48.038;10.158;2024-01-27T14:16:18;96818.72;;;9.65;73.13
85258;BME280;75669;48.038;10.158;2024-01-27T14:18:43;96818.84;;;10.19;73.02
85258;BME280;75669;48.038;10.158;2024-01-27T14:21:09;96826.81;;;10.55;73.19
85258;BME280;75669;48.038;10.158;2024-01-27T14:23:36;96831.19;;;9.70;75.46
85258;BME280;75669;48.038;10.158;2024-01-27T14:26:03;96824.13;;;9.24;73.93
85258;BME280;75669;48.038;10.158;2024-01-27T14:28:28;96837.97;;;9.53;74.86
85258;BME280;75669;48.038;10.158;2024-01-27T14:30:54;96832.81;;;8.88;74.12
85258;BME280;75669;48.038;10.158;2024-01-27T14:33:19;96823.44;;;9.18;76.05
85258;BME280;75669;48.038;10.158;2024-01-27T14:35:46;96818.38;;;9.30;76.45
85258;BME280;75669;48.038;10.158;2024-01-27T14:38:12;96826.78;;;9.24;75.95
85258;BME280;75669;48.038;10.158;2024-01-27T14:40:38;96818.16;;;9.13;75.09
85258;BME280;75669;48.038;10.158;2024-01-27T14:43:04;96822.56;;;9.73;75.42
85258;BME280;75669;48.038;10.158;2024-01-27T14:45:33;96821.94;;;8.84;76.82
85258;BME280;75669;48.038;10.158;2024-01-27T14:48:01;96824.91;;;8.97;78.82
85258;BME280;75669;48.038;10.158;2024-01-27T14:50:26;96816.31;;;9.27;77.10
85258;BME280;75669;48.038;10.158;2024-01-27T14:52:52;96816.22;;;9.83;76.93
85258;BME280;75669;48.038;10.158;2024-01-27T14:55:17;96817.53;;;9.57;76.97
85258;BME280;75669;48.038;10.158;2024-01-27T14:57:43;96810.28;;;8.94;78.30
85258;BME280;75669;48.038;10.158;2024-01-27T15:00:11;96815.81;;;9.11;79.04
85258;BME280;75669;48.038;10.158;2024-01-27T15:02:40;96811.16;;;9.17;77.79
85258;BME280;75669;48.038;10.158;2024-01-27T15:05:06;96813.03;;;9.17;78.15
85258;BME280;75669;48.038;10.158;2024-01-27T15:07:33;96797.41;;;9.10;77.35
85258;BME280;75669;48.038;10.158;2024-01-27T15:09:59;96799.34;;;9.96;75.67
85258;BME280;75669;48.038;10.158;2024-01-27T15:12:24;96793.66;;;10.11;75.02
85258;BME280;75669;48.038;10.158;2024-01-27T15:14:50;96797.91;;;9.12;75.86
85258;BME280;75669;48.038;10.158;2024-01-27T15:17:17;96796.28;;;8.42;77.96
85258;BME280;75669;48.038;10.158;2024-01-27T15:19:43;96790.94;;;8.42;79.19
85258;BME280;75669;48.038;10.158;2024-01-27T15:22:08;96794.50;;;8.51;79.83
85258;BME280;75669;48.038;10.158;2024-01-27T15:24:33;96789.06;;;8.42;80.79
85258;BME280;75669;48.038;10.158;2024-01-27T15:27:02;96786.75;;;8.36;82.70
85258;BME280;75669;48.038;10.158;2024-01-27T15:29:27;96787.41;;;8.27;82.04
85258;BME280;75669;48.038;10.158;2024-01-27T15:31:53;96788.44;;;8.13;81.89
85258;BME280;75669;48.038;10.158;2024-01-27T15:34:18;96790.69;;;8.05;82.42
85258;BME280;75669;48.038;10.158;2024-01-27T15:36:44;96796.59;;;8.68;81.67
85258;BME280;75669;48.038;10.158;2024-01-27T15:39:10;96794.00;;;8.49;81.97
85258;BME280;75669;48.038;10.158;2024-01-27T15:41:36;96792.41;;;8.48;80.02
85258;BME280;75669;48.038;10.158;2024-01-27T15:44:01;96801.56;;;7.90;80.99
85258;BME280;75669;48.038;10.158;2024-01-27T15:46:27;96803.16;;;7.91;82.06
85258;BME280;75669;48.038;10.158;2024-01-27T15:48:52;96799.56;;;7.63;81.58
85258;BME280;75669;48.038;10.158;2024-01-27T15:51:17;96789.84;;;7.53;81.47
85258;BME280;75669;48.038;10.158;2024-01-27T15:53:43;96795.13;;;7.15;82.81
85258;BME280;75669;48.038;10.158;2024-01-27T15:56:09;96791.50;;;7.06;83.67
85258;BME280;75669;48.038;10.158;2024-01-27T15:58:35;96795.63;;;7.41;83.64
85258;BME280;75669;48.038;10.158;2024-01-27T16:01:00;96806.53;;;6.97;87.10
85258;BME280;75669;48.038;10.158;2024-01-27T16:03:26;96799.81;;;6.75;86.39
85258;BME280;75669;48.038;10.158;2024-01-27T16:05:51;96813.88;;;6.52;88.64
85258;BME280;75669;48.038;10.158;2024-01-27T16:08:17;96813.41;;;6.44;89.50
85258;BME280;75669;48.038;10.158;2024-01-27T16:10:42;96822.03;;;6.60;91.04
85258;BME280;75669;48.038;10.158;2024-01-27T16:13:09;96818.84;;;6.34;91.57
85258;BME280;75669;48.038;10.158;2024-01-27T16:15:34;96818.50;;;6.41;94.33
85258;BME280;75669;48.038;10.158;2024-01-27T16:18:00;96817.22;;;6.33;99.31
85258;BME280;75669;48.038;10.158;2024-01-27T16:20:25;96820.97;;;6.32;100.00
85258;BME280;75669;48.038;10.158;2024-01-27T16:22:51;96812.34;;;6.75;100.00
85258;BME280;75669;48.038;10.158;2024-01-27T16:25:16;96818.34;;;6.85;100.00
85258;BME280;75669;48.038;10.158;2024-01-27T16:27:42;96831.09;;;6.59;100.00
85258;BME280;75669;48.038;10.158;2024-01-27T16:30:08;96829.50;;;6.29;100.00
85258;BME280;75669;48.038;10.158;2024-01-27T16:32:33;96826.50;;;6.41;100.00
85258;BME280;75669;48.038;10.158;2024-01-27T16:34:59;96829.81;;;6.57;100.00
85258;BME280;75669;48.038;10.158;2024-01-27T16:37:24;96831.88;;;6.60;100.00
85258;BME280;75669;48.038;10.158;2024-01-27T16:39:49;96833.97;;;6.34;100.00
85258;BME280;75669;48.038;10.158;2024-01-27T16:42:15;96835.00;;;6.67;100.00
85258;BME280;75669;48.038;10.158;2024-01-27T16:44:41;96835.94;;;6.81;99.90
85258;BME280;75669;48.038;10.158;2024-01-27T16:47:06;96843.25;;;6.95;97.78
85258;BME280;75669;48.038;10.158;2024-01-27T16:49:32;96846.81;;;6.56;100.00
85258;BME280;75669;48.038;10.158;2024-01-27T16:51:58;96850.72;;;6.34;98.86
85258;BME280;75669;48.038;10.158;2024-01-27T16:54:23;96852.00;;;6.42;98.16
85258;BME280;75669;48.038;10.158;2024-01-27T16:56:50;96861.13;;;6.31;98.50
85258;BME280;75669;48.038;10.158;2024-01-27T16:59:17;96852.25;;;6.06;98.79
85258;BME280;75669;48.038;10.158;2024-01-27T17:01:43;96862.25;;;6.19;97.76
85258;BME280;75669;48.038;10.158;2024-01-27T17:04:08;96849.91;;;6.39;99.22
85258;BME280;75669;48.038;10.158;2024-01-27T17:06:38;96860.56;;;6.34;97.02
85258;BME280;75669;48.038;10.158;2024-01-27T17:09:03;96863.47;;;5.98;97.46
85258;BME280;75669;48.038;10.158;2024-01-27T17:11:29;96859.56;;;6.24;96.74
85258;BME280;75669;48.038;10.158;2024-01-27T17:13:54;96868.00;;;5.87;97.54
85258;BME280;75669;48.038;10.158;2024-01-27T17:16:22;96860.56;;;6.63;94.81
85258;BME280;75669;48.038;10.158;2024-01-27T17:18:47;96855.63;;;6.51;94.13
85258;BME280;75669;48.038;10.158;2024-01-27T17:21:13;96856.06;;;5.95;94.98
85258;BME280;75669;48.038;10.158;2024-01-27T17:23:38;96850.09;;;6.48;94.93
85258;BME280;75669;48.038;10.158;2024-01-27T17:26:04;96861.56;;;6.43;93.03
85258;BME280;75669;48.038;10.158;2024-01-27T17:28:29;96857.13;;;5.89;94.16
85258;BME280;75669;48.038;10.158;2024-01-27T17:30:55;96863.63;;;6.17;95.77
85258;BME280;75669;48.038;10.158;2024-01-27T17:33:20;96864.38;;;6.57;92.97
85258;BME280;75669;48.038;10.158;2024-01-27T17:35:46;96861.63;;;5.98;95.36
85258;BME280;75669;48.038;10.158;2024-01-27T17:38:11;96862.38;;;6.04;95.42
85258;BME280;75669;48.038;10.158;2024-01-27T17:40:37;96859.75;;;5.99;96.59
85258;BME280;75669;48.038;10.158;2024-01-27T17:43:02;96855.22;;;5.99;95.10
85258;BME280;75669;48.038;10.158;2024-01-27T17:45:28;96850.56;;;5.71;95.11
85258;BME280;75669;48.038;10.158;2024-01-27T17:47:53;96853.19;;;5.76;96.62
85258;BME280;75669;48.038;10.158;2024-01-27T17:50:20;96857.72;;;5.75;96.83
85258;BME280;75669;48.038;10.158;2024-01-27T17:52:45;96861.28;;;5.60;97.08
85258;BME280;75669;48.038;10.158;2024-01-27T17:55:10;96854.19;;;5.35;98.00
85258;BME280;75669;48.038;10.158;2024-01-27T17:57:38;96861.00;;;6.46;95.50
85258;BME280;75669;48.038;10.158;2024-01-27T18:00:04;96854.28;;;6.54;91.57
85258;BME280;75669;48.038;10.158;2024-01-27T18:02:33;96866.78;;;6.19;91.81
85258;BME280;75669;48.038;10.158;2024-01-27T18:04:58;96858.41;;;6.36;91.33
85258;BME280;75669;48.038;10.158;2024-01-27T18:07:23;96864.13;;;6.53;88.16
85258;BME280;75669;48.038;10.158;2024-01-27T18:09:49;96871.31;;;6.53;88.16
85258;BME280;75669;48.038;10.158;2024-01-27T18:12:14;96872.09;;;6.82;86.78
85258;BME280;75669;48.038;10.158;2024-01-27T18:14:39;96873.59;;;6.94;85.83
85258;BME280;75669;48.038;10.158;2024-01-27T18:17:05;96878.16;;;6.30;86.63
85258;BME280;75669;48.038;10.158;2024-01-27T18:19:30;96881.13;;;6.23;87.51
85258;BME280;75669;48.038;10.158;2024-01-27T18:21:55;96873.41;;;5.12;89.05
85258;BME280;75669;48.038;10.158;2024-01-27T18:24:23;96875.22;;;5.22;91.33
85258;BME280;75669;48.038;10.158;2024-01-27T18:26:48;96873.25;;;5.53;93.83
85258;BME280;75669;48.038;10.158;2024-01-27T18:29:13;96882.66;;;5.25;93.62
85258;BME280;75669;48.038;10.158;2024-01-27T18:31:39;96881.03;;;5.29;94.13
85258;BME280;75669;48.038;10.158;2024-01-27T18:34:09;96883.94;;;5.32;94.34
85258;BME280;75669;48.038;10.158;2024-01-27T18:36:34;96874.50;;;4.90;94.58
85258;BME280;75669;48.038;10.158;2024-01-27T18:39:00;96881.13;;;4.77;97.27
85258;BME280;75669;48.038;10.158;2024-01-27T18:41:26;96879.31;;;4.68;99.06
85258;BME280;75669;48.038;10.158;2024-01-27T18:43:51;96871.03;;;4.95;97.56
85258;BME280;75669;48.038;10.158;2024-01-27T18:46:16;96876.31;;;5.00;97.67
85258;BME280;75669;48.038;10.158;2024-01-27T18:48:42;96874.25;;;4.87;97.70
85258;BME280;75669;48.038;10.158;2024-01-27T18:51:14;96883.50;;;5.05;98.92
85258;BME280;75669;48.038;10.158;2024-01-27T18:53:39;96882.19;;;4.97;98.93
85258;BME280;75669;48.038;10.158;2024-01-27T18:56:07;96896.00;;;4.73;100.00
85258;BME280;75669;48.038;10.158;2024-01-27T18:58:34;96890.72;;;4.73;100.00
85258;BME280;75669;48.038;10.158;2024-01-27T19:01:00;96885.66;;;4.62;100.00
85258;BME280;75669;48.038;10.158;2024-01-27T19:03:25;96882.75;;;4.37;100.00
85258;BME280;75669;48.038;10.158;2024-01-27T19:05:51;96892.59;;;4.42;100.00
85258;BME280;75669;48.038;10.158;2024-01-27T19:08:18;96908.47;;;4.42;100.00
85258;BME280;75669;48.038;10.158;2024-01-27T19:10:43;96902.09;;;4.74;100.00
85258;BME280;75669;48.038;10.158;2024-01-27T19:13:11;96902.38;;;4.52;100.00
85258;BME280;75669;48.038;10.158;2024-01-27T19:15:38;96909.00;;;4.65;100.00
85258;BME280;75669;48.038;10.158;2024-01-27T19:18:03;96905.28;;;4.71;100.00
85258;BME280;75669;48.038;10.158;2024-01-27T19:20:28;96910.31;;;4.67;100.00
85258;BME280;75669;48.038;10.158;2024-01-27T19:22:54;96911.63;;;4.60;100.00
85258;BME280;75669;48.038;10.158;2024-01-27T19:25:19;96913.78;;;4.68;100.00
85258;BME280;75669;48.038;10.158;2024-01-27T19:27:45;96916.66;;;4.25;100.00
85258;BME280;75669;48.038;10.158;2024-01-27T19:30:11;96917.22;;;4.22;100.00
85258;BME280;75669;48.038;10.158;2024-01-27T19:32:36;96918.25;;;4.11;100.00
85258;BME280;75669;48.038;10.158;2024-01-27T19:35:02;96916.63;;;4.00;100.00
85258;BME280;75669;48.038;10.158;2024-01-27T19:37:28;96913.44;;;5.20;100.00
85258;BME280;75669;48.038;10.158;2024-01-27T19:39:53;96914.94;;;3.10;100.00
85258;BME280;75669;48.038;10.158;2024-01-27T19:42:19;96925.34;;;3.22;100.00
85258;BME280;75669;48.038;10.158;2024-01-27T19:44:44;96921.66;;;2.85;100.00
85258;BME280;75669;48.038;10.158;2024-01-27T19:47:10;96911.59;;;4.08;100.00
85258;BME280;75669;48.038;10.158;2024-01-27T19:49:35;96921.28;;;3.04;100.00
85258;BME280;75669;48.038;10.158;2024-01-27T19:52:04;96928.56;;;2.54;100.00
85258;BME280;75669;48.038;10.158;2024-01-27T19:54:30;96918.97;;;3.86;100.00
85258;BME280;75669;48.038;10.158;2024-01-27T19:56:55;96915.22;;;3.77;100.00
85258;BME280;75669;48.038;10.158;2024-01-27T19:59:20;96916.38;;;4.11;100.00
85258;BME280;75669;48.038;10.158;2024-01-27T20:01:46;96918.66;;;3.72;100.00
85258;BME280;75669;48.038;10.158;2024-01-27T20:04:11;96915.84;;;3.31;100.00
85258;BME280;75669;48.038;10.158;2024-01-27T20:06:36;96911.34;;;4.15;100.00
85258;BME280;75669;48.038;10.158;2024-01-27T20:09:02;96914.69;;;3.64;100.00
85258;BME280;75669;48.038;10.158;2024-01-27T20:11:27;96909.69;;;3.78;100.00
85258;BME280;75669;48.038;10.158;2024-01-27T20:13:52;96907.13;;;4.19;100.00
85258;BME280;75669;48.038;10.158;2024-01-27T20:16:18;96906.59;;;4.27;100.00
85258;BME280;75669;48.038;10.158;2024-01-27T20:18:43;96909.53;;;4.56;100.00
85258;BME280;75669;48.038;10.158;2024-01-27T20:21:08;96906.88;;;4.67;100.00
85258;BME280;75669;48.038;10.158;2024-01-27T20:23:34;96900.72;;;5.02;100.00
85258;BME280;75669;48.038;10.158;2024-01-27T20:25:59;96909.78;;;4.40;100.00
85258;BME280;75669;48.038;10.158;2024-01-27T20:28:25;96890.66;;;4.99;100.00
85258;BME280;75669;48.038;10.158;2024-01-27T20:30:50;96891.69;;;5.08;100.00
85258;BME280;75669;48.038;10.158;2024-01-27T20:33:16;96888.09;;;3.33;100.00
85258;BME280;75669;48.038;10.158;2024-01-27T20:35:42;96881.16;;;4.72;100.00
85258;BME280;75669;48.038;10.158;2024-01-27T20:38:08;96889.63;;;3.98;100.00
85258;BME280;75669;48.038;10.158;2024-01-27T20:40:33;96895.72;;;4.08;100.00
85258;BME280;75669;48.038;10.158;2024-01-27T20:42:59;96897.31;;;4.91;100.00
85258;BME280;75669;48.038;10.158;2024-01-27T20:45:29;96899.72;;;4.42;100.00
85258;BME280;75669;48.038;10.158;2024-01-27T20:47:55;96893.38;;;4.73;100.00
85258;BME280;75669;48.038;10.158;2024-01-27T20:50:20;96888.06;;;4.73;100.00
85258;BME280;75669;48.038;10.158;2024-01-27T20:52:46;96895.22;;;4.63;100.00
85258;BME280;75669;48.038;10.158;2024-01-27T20:55:11;96897.84;;;4.37;100.00
85258;BME280;75669;48.038;10.158;2024-01-27T20:57:36;96889.13;;;4.57;100.00
85258;BME280;75669;48.038;10.158;2024-01-27T21:00:02;96888.56;;;4.70;100.00
85258;BME280;75669;48.038;10.158;2024-01-27T21:02:27;96891.00;;;4.51;100.00
85258;BME280;75669;48.038;10.158;2024-01-27T21:04:53;96885.41;;;4.48;100.00
85258;BME280;75669;48.038;10.158;2024-01-27T21:07:18;96890.47;;;4.29;100.00
85258;BME280;75669;48.038;10.158;2024-01-27T21:09:44;96883.31;;;4.24;100.00
85258;BME280;75669;48.038;10.158;2024-01-27T21:12:10;96886.44;;;4.26;100.00
85258;BME280;75669;48.038;10.158;2024-01-27T21:14:35;96884.81;;;3.84;100.00
85258;BME280;75669;48.038;10.158;2024-01-27T21:17:01;96871.91;;;4.13;100.00
85258;BME280;75669;48.038;10.158;2024-01-27T21:19:26;96888.28;;;2.37;100.00
85258;BME280;75669;48.038;10.158;2024-01-27T21:21:52;96884.41;;;2.49;100.00
85258;BME280;75669;48.038;10.158;2024-01-27T21:24:17;96882.94;;;2.32;100.00
85258;BME280;75669;48.038;10.158;2024-01-27T21:26:42;96875.19;;;3.52;100.00
85258;BME280;75669;48.038;10.158;2024-01-27T21:29:09;96875.56;;;3.97;100.00
85258;BME280;75669;48.038;10.158;2024-01-27T21:31:35;96876.59;;;3.12;100.00
85258;BME280;75669;48.038;10.158;2024-01-27T21:34:00;96869.03;;;3.26;100.00
85258;BME280;75669;48.038;10.158;2024-01-27T21:36:26;96871.28;;;3.07;100.00
85258;BME280;75669;48.038;10.158;2024-01-27T21:38:53;96865.50;;;3.99;100.00
85258;BME280;75669;48.038;10.158;2024-01-27T21:41:18;96864.06;;;3.50;100.00
85258;BME280;75669;48.038;10.158;2024-01-27T21:43:43;96861.31;;;4.13;100.00
85258;BME280;75669;48.038;10.158;2024-01-27T21:46:09;96862.47;;;3.44;100.00
85258;BME280;75669;48.038;10.158;2024-01-27T21:48:34;96858.56;;;3.72;100.00
85258;BME280;75669;48.038;10.158;2024-01-27T21:51:00;96865.22;;;3.85;100.00
85258;BME280;75669;48.038;10.158;2024-01-27T21:53:25;96850.16;;;4.47;100.00
85258;BME280;75669;48.038;10.158;2024-01-27T21:55:50;96850.94;;;4.73;100.00
85258;BME280;75669;48.038;10.158;2024-01-27T21:58:16;96848.00;;;3.83;100.00
85258;BME280;75669;48.038;10.158;2024-01-27T22:00:41;96855.47;;;4.27;100.00
85258;BME280;75669;48.038;10.158;2024-01-27T22:03:07;96852.53;;;4.28;100.00
85258;BME280;75669;48.038;10.158;2024-01-27T22:05:32;96858.88;;;3.86;100.00
85258;BME280;75669;48.038;10.158;2024-01-27T22:07:58;96849.84;;;3.77;100.00
85258;BME280;75669;48.038;10.158;2024-01-27T22:10:23;96854.06;;;3.68;100.00
85258;BME280;75669;48.038;10.158;2024-01-27T22:12:49;96854.59;;;3.60;100.00
85258;BME280;75669;48.038;10.158;2024-01-27T22:15:14;96850.28;;;3.38;100.00
85258;BME280;75669;48.038;10.158;2024-01-27T22:17:40;96849.56;;;3.63;100.00
85258;BME280;75669;48.038;10.158;2024-01-27T22:20:09;96849.25;;;3.44;100.00
85258;BME280;75669;48.038;10.158;2024-01-27T22:22:36;96841.56;;;3.48;100.00
85258;BME280;75669;48.038;10.158;2024-01-27T22:25:02;96840.09;;;3.04;100.00
85258;BME280;75669;48.038;10.158;2024-01-27T22:27:27;96847.47;;;3.02;100.00
85258;BME280;75669;48.038;10.158;2024-01-27T22:29:52;96840.22;;;3.40;100.00